Time;durP1;ratioP1;P1;durP2;ratioP2;P2;SDS_P1;SDS_P2;PMS_P1;PMS_P2;Temp;Humidity;BMP_temperature;BMP_pressure;BME280_temperature;BME280_humidity;BME280_pressure;Samples;Min_cycle;Max_cycle;Signal;HPM_P1;HPM_P2
2024/03/15 00:01:36;;;;;;;10.50;6.30;;;;;;;5.59;90.39;100400.97;1468067;88;21433;-74
2024/03/15 00:04:04;;;;;;;8.60;5.70;;;;;;;5.58;90.01;100408.94;1476293;88;21301;-74
2024/03/15 00:06:33;;;;;;;9.03;5.70;;;;;;;5.62;89.79;100405.16;1441183;89;22404;-74
2024/03/15 00:09:01;;;;;;;11.30;7.07;;;;;;;5.62;90.01;100406.47;1424168;92;21533;-74
2024/03/15 00:11:30;;;;;;;11.80;5.37;;;;;;;5.59;90.37;100405.39;1465862;88;21390;-73
2024/03/15 00:13:57;;;;;;;8.33;5.47;;;;;;;5.58;90.39;100402.38;1467758;88;22425;-73
2024/03/15 00:16:24;;;;;;;9.47;5.57;;;;;;;5.59;89.70;100405.39;1471671;88;21368;-73
2024/03/15 00:18:53;;;;;;;8.33;5.13;;;;;;;5.63;88.60;100404.19;1472229;88;21494;-74
2024/03/15 00:21:20;;;;;;;9.47;6.03;;;;;;;5.67;89.12;100401.70;1469368;88;22301;-73
2024/03/15 00:23:47;;;;;;;9.30;6.20;;;;;;;5.74;88.37;100401.59;1438380;89;21989;-74
2024/03/15 00:26:15;;;;;;;10.20;5.90;;;;;;;5.76;88.28;100402.31;1428583;92;21436;-73
2024/03/15 00:28:42;;;;;;;8.67;5.87;;;;;;;5.77;88.17;100402.66;1470063;88;21354;-74
2024/03/15 00:31:09;;;;;;;7.20;4.77;;;;;;;5.79;87.39;100402.08;1431476;90;22315;-73
2024/03/15 00:33:38;;;;;;;9.50;5.97;;;;;;;5.81;87.82;100400.18;1470537;88;21429;-74
2024/03/15 00:36:06;;;;;;;8.57;5.43;;;;;;;5.83;87.19;100399.56;1468661;88;21405;-75
2024/03/15 00:38:33;;;;;;;7.67;4.73;;;;;;;5.78;87.33;100397.79;1442376;90;22256;-74
2024/03/15 00:41:00;;;;;;;9.20;5.73;;;;;;;5.71;87.50;100390.48;1445534;89;21338;-74
2024/03/15 00:43:28;;;;;;;9.07;5.60;;;;;;;5.66;88.23;100394.77;1469568;88;22364;-74
2024/03/15 00:45:57;;;;;;;11.63;6.20;;;;;;;5.62;88.14;100394.65;1445079;90;21398;-75
2024/03/15 00:48:24;;;;;;;8.60;6.03;;;;;;;5.60;88.08;100394.75;1471797;88;21545;-75
2024/03/15 00:50:52;;;;;;;8.30;6.00;;;;;;;5.61;88.31;100392.95;1445871;90;21390;-75
2024/03/15 00:53:19;;;;;;;8.07;5.27;;;;;;;5.63;87.68;100391.06;1437987;90;21384;-75
2024/03/15 00:55:46;;;;;;;13.13;6.23;;;;;;;5.63;88.30;100391.06;1441805;89;21449;-74
2024/03/15 00:58:14;;;;;;;9.07;6.27;;;;;;;5.62;88.89;100387.61;1468767;88;22805;-74
2024/03/15 01:00:42;;;;;;;9.30;6.43;;;;;;;5.63;88.16;100390.58;1470557;88;22116;-74
2024/03/15 01:03:10;;;;;;;10.20;6.43;;;;;;;5.64;88.25;100388.33;1464818;88;21368;-75
2024/03/15 01:05:38;;;;;;;7.77;5.37;;;;;;;5.70;87.98;100387.03;1470253;88;21598;-73
2024/03/15 01:08:07;;;;;;;7.90;5.67;;;;;;;5.75;87.94;100387.48;1446412;90;22450;-74
2024/03/15 01:10:35;;;;;;;25.13;13.70;;;;;;;5.80;88.57;100389.77;1391875;88;22249;-74
2024/03/15 01:13:03;;;;;;;29.37;15.90;;;;;;;5.87;89.04;100382.63;1394386;88;21324;-75
2024/03/15 01:15:30;;;;;;;18.83;9.90;;;;;;;5.91;89.15;100385.84;1392721;88;21449;-75
2024/03/15 01:17:57;;;;;;;10.17;6.50;;;;;;;5.92;88.18;100378.80;1549228;88;21369;-75
2024/03/15 01:20:25;;;;;;;10.47;7.27;;;;;;;5.98;87.96;100379.66;1393753;88;21243;-74
2024/03/15 01:22:52;;;;;;;17.67;11.13;;;;;;;6.01;88.13;100378.97;1371732;90;21414;-74
2024/03/15 01:25:19;;;;;;;16.93;10.07;;;;;;;6.04;87.19;100383.13;1399933;90;21404;-75
2024/03/15 01:27:47;;;;;;;10.70;6.97;;;;;;;6.06;86.99;100378.59;1445389;90;21458;-74
2024/03/15 01:30:17;;;;;;;13.47;8.43;;;;;;;6.07;86.69;100371.92;1465866;88;21375;-74
2024/03/15 01:32:44;;;;;;;23.27;14.57;;;;;;;6.08;85.90;100378.84;1462144;88;21419;-74
2024/03/15 01:35:11;;;;;;;10.17;6.63;;;;;;;6.03;84.29;100377.04;1468398;88;21420;-74
2024/03/15 01:37:40;;;;;;;10.60;7.17;;;;;;;6.00;83.63;100375.13;1465005;88;22396;-74
2024/03/15 01:40:09;;;;;;;13.30;7.93;;;;;;;5.97;83.17;100375.38;1473638;88;22175;-74
2024/03/15 01:42:36;;;;;;;11.13;6.63;;;;;;;5.85;83.30;100375.34;1466484;88;21612;-74
2024/03/15 01:45:07;;;;;;;12.00;7.67;;;;;;;5.76;83.52;100370.80;1470513;88;21339;-74
2024/03/15 01:47:34;;;;;;;12.28;8.08;;;;;;;5.64;84.46;100370.44;1466246;88;21884;-74
2024/03/15 01:50:02;;;;;;;16.67;9.57;;;;;;;5.62;84.09;100368.39;1445395;90;21428;-74
2024/03/15 01:52:34;;;;;;;16.77;10.83;;;;;;;5.62;84.69;100368.39;1473634;88;21360;-75
2024/03/15 01:55:03;;;;;;;18.23;10.87;;;;;;;5.63;84.76;100371.36;1466848;88;21946;-74
2024/03/15 01:57:30;;;;;;;15.47;10.67;;;;;;;5.62;85.10;100373.64;1465523;88;21367;-74
2024/03/15 01:59:58;;;;;;;13.97;9.93;;;;;;;5.58;84.50;100365.63;1429253;88;21471;-74
2024/03/15 02:02:28;;;;;;;16.20;10.33;;;;;;;5.53;84.61;100363.85;1464620;88;21501;-74
2024/03/15 02:04:55;;;;;;;15.43;10.13;;;;;;;5.47;84.01;100361.22;1470880;88;22300;-73
2024/03/15 02:07:27;;;;;;;13.50;9.60;;;;;;;5.40;84.53;100363.92;1475169;88;21937;-75
2024/03/15 02:09:53;;;;;;;14.43;7.78;;;;;;;5.33;84.46;100364.05;1469847;88;21656;-75
2024/03/15 02:12:21;;;;;;;15.13;9.37;;;;;;;5.29;84.58;100369.14;1443634;90;21450;-77
2024/03/15 02:14:50;;;;;;;17.80;9.97;;;;;;;5.24;84.85;100366.88;1445380;90;21909;-75
2024/03/15 02:17:23;;;;;;;15.43;10.10;;;;;;;5.20;85.15;100365.42;1415566;91;22257;-75
2024/03/15 02:19:48;;;;;;;15.90;10.20;;;;;;;5.14;84.93;100366.71;1427114;91;21638;-75
2024/03/15 02:22:16;;;;;;;15.77;9.60;;;;;;;5.09;85.11;100365.38;1426303;91;21369;-75
2024/03/15 02:24:44;;;;;;;15.30;8.73;;;;;;;5.04;85.78;100362.28;1471617;88;22226;-75
2024/03/15 02:27:13;;;;;;;17.27;10.77;;;;;;;5.02;86.06;100366.80;1463130;88;21404;-75
2024/03/15 02:29:41;;;;;;;15.20;9.23;;;;;;;4.98;86.86;100367.03;1447323;88;21647;-75
2024/03/15 02:32:09;;;;;;;18.57;12.07;;;;;;;4.96;86.73;100368.92;1464829;88;21441;-75
2024/03/15 02:34:36;;;;;;;12.97;8.63;;;;;;;4.93;87.86;100384.88;1458816;88;21376;-74
2024/03/15 02:37:04;;;;;;;12.90;8.23;;;;;;;4.85;88.95;100371.48;1467008;88;21538;-75
2024/03/15 02:39:31;;;;;;;14.23;9.50;;;;;;;4.89;88.50;100375.58;1442295;90;21547;-75
2024/03/15 02:41:58;;;;;;;13.97;9.10;;;;;;;4.87;90.07;100377.95;1445228;90;21443;-75
2024/03/15 02:44:25;;;;;;;18.33;10.53;;;;;;;4.81;89.81;100369.22;1468383;88;21580;-76
2024/03/15 02:46:54;;;;;;;15.50;9.77;;;;;;;4.83;89.60;100379.94;1469093;88;21427;-74
2024/03/15 02:49:21;;;;;;;15.67;9.20;;;;;;;4.80;89.96;100378.02;1448100;90;21360;-75
2024/03/15 02:51:48;;;;;;;14.23;8.77;;;;;;;4.80;89.96;100378.02;1423115;91;22445;-75
2024/03/15 02:54:16;;;;;;;16.07;10.00;;;;;;;4.81;91.13;100380.54;1470992;88;21383;-75
2024/03/15 02:56:43;;;;;;;14.40;8.93;;;;;;;4.84;90.58;100376.86;1472654;88;22447;-75
2024/03/15 02:59:12;;;;;;;16.33;10.37;;;;;;;4.88;91.36;100380.44;1469734;88;21427;-75
2024/03/15 03:01:39;;;;;;;14.03;8.83;;;;;;;4.91;91.14;100381.52;1468506;88;22014;-75
2024/03/15 03:04:06;;;;;;;16.47;9.90;;;;;;;4.90;92.26;100379.86;1469239;88;22233;-75
2024/03/15 03:06:36;;;;;;;16.60;10.73;;;;;;;4.90;92.09;100382.48;1471290;88;21524;-75
2024/03/15 03:09:06;;;;;;;21.10;12.53;;;;;;;4.93;91.67;100376.19;1471990;88;21631;-75
2024/03/15 03:11:33;;;;;;;19.87;11.03;;;;;;;4.97;91.95;100386.80;1478475;88;21471;-75
2024/03/15 03:14:01;;;;;;;20.53;12.50;;;;;;;4.98;92.28;100381.45;1468499;88;21331;-75
2024/03/15 03:16:28;;;;;;;17.07;10.43;;;;;;;4.96;92.00;100383.34;1468999;88;22262;-75
2024/03/15 03:18:55;;;;;;;18.87;10.73;;;;;;;4.94;91.56;100385.23;1474616;88;21487;-74
2024/03/15 03:21:22;;;;;;;16.33;10.47;;;;;;;4.88;93.10;100389.63;1469384;88;21383;-75
2024/03/15 03:23:49;;;;;;;16.93;10.83;;;;;;;4.83;92.06;100389.11;1472627;88;21630;-75
2024/03/15 03:26:17;;;;;;;17.03;11.20;;;;;;;4.76;92.45;100386.59;1475602;88;21368;-75
2024/03/15 03:28:44;;;;;;;18.57;10.70;;;;;;;4.72;92.94;100387.29;1474231;88;22507;-75
2024/03/15 03:31:11;;;;;;;19.17;11.13;;;;;;;4.70;93.00;100384.41;1472175;88;21405;-75
2024/03/15 03:33:38;;;;;;;24.77;15.97;;;;;;;4.64;93.99;100390.11;1460865;88;21360;-75
2024/03/15 03:36:06;;;;;;;18.07;11.60;;;;;;;4.63;93.28;100397.13;1471229;88;21353;-75
2024/03/15 03:38:33;;;;;;;18.37;11.37;;;;;;;4.63;93.86;100398.89;1466906;88;21575;-75
2024/03/15 03:41:01;;;;;;;22.47;12.03;;;;;;;4.55;94.80;100409.12;1467648;88;21582;-76
2024/03/15 03:43:28;;;;;;;17.03;11.23;;;;;;;4.50;94.43;100396.33;1468692;88;21471;-75
2024/03/15 03:45:56;;;;;;;17.93;10.27;;;;;;;4.50;94.43;100396.33;1473204;88;21475;-76
2024/03/15 03:48:24;;;;;;;18.27;11.30;;;;;;;4.49;94.42;100400.73;1474389;88;21413;-76
2024/03/15 03:50:51;;;;;;;16.40;9.77;;;;;;;4.46;94.59;100399.64;1473383;88;22186;-76
2024/03/15 03:53:19;;;;;;;17.80;10.80;;;;;;;4.43;94.58;100402.94;1458339;88;22030;-76
2024/03/15 03:55:46;;;;;;;17.90;10.97;;;;;;;4.39;94.45;100406.25;1471196;88;21523;-76
2024/03/15 03:58:13;;;;;;;19.53;11.57;;;;;;;4.39;94.45;100406.25;1472021;88;21435;-75
2024/03/15 04:00:43;;;;;;;21.33;12.80;;;;;;;4.35;95.08;100399.56;1456972;88;22039;-75
2024/03/15 04:03:10;;;;;;;17.77;11.53;;;;;;;4.32;94.72;100404.20;1471824;88;21648;-75
2024/03/15 04:05:38;;;;;;;18.47;10.60;;;;;;;4.29;95.14;100405.24;1467333;88;22068;-75
2024/03/15 04:08:05;;;;;;;21.67;11.30;;;;;;;4.26;94.94;100403.67;1467241;88;22164;-75
2024/03/15 04:10:35;;;;;;;17.80;10.13;;;;;;;4.22;96.19;100407.44;1468203;88;23008;-75
2024/03/15 04:13:02;;;;;;;22.73;12.47;;;;;;;4.16;96.97;100403.94;1473335;88;23167;-75
2024/03/15 04:15:29;;;;;;;18.20;12.30;;;;;;;4.14;97.25;100404.51;1467033;88;23193;-75
2024/03/15 04:18:02;;;;;;;22.13;13.37;;;;;;;4.14;96.62;100404.98;1464674;88;22083;-75
2024/03/15 04:20:29;;;;;;;18.83;11.63;;;;;;;4.12;97.02;100402.97;1452769;88;22143;-75
2024/03/15 04:22:57;;;;;;;24.33;12.00;;;;;;;4.06;97.08;100402.44;1463204;88;22120;-74
2024/03/15 04:25:25;;;;;;;26.37;12.60;;;;;;;4.00;98.25;100408.11;1477535;88;23119;-75
2024/03/15 04:27:53;;;;;;;18.83;11.03;;;;;;;3.94;98.95;100410.29;1468637;88;22053;-74
2024/03/15 04:30:22;;;;;;;19.60;11.63;;;;;;;3.89;100.00;100418.48;1470865;88;22256;-75
2024/03/15 04:32:49;;;;;;;19.37;12.10;;;;;;;3.85;100.00;100416.99;1472071;88;23037;-75
2024/03/15 04:35:17;;;;;;;24.17;11.80;;;;;;;3.83;100.00;100417.59;1471751;88;22209;-74
2024/03/15 04:37:46;;;;;;;21.27;12.47;;;;;;;3.81;100.00;100421.61;1467519;88;23059;-75
2024/03/15 04:40:16;;;;;;;21.23;12.60;;;;;;;3.81;99.78;100422.09;1471173;88;22202;-75
2024/03/15 04:42:43;;;;;;;17.95;11.85;;;;;;;3.80;99.92;100420.42;1467992;88;22163;-75
2024/03/15 04:45:12;;;;;;;19.47;11.30;;;;;;;3.78;99.41;100419.68;1456691;88;21316;-75
2024/03/15 04:47:42;;;;;;;19.17;11.40;;;;;;;3.74;100.00;100418.19;1464385;88;22061;-75
2024/03/15 04:50:10;;;;;;;24.60;13.15;;;;;;;3.69;100.00;100417.69;1468907;88;22135;-75
2024/03/15 04:52:41;;;;;;;21.63;11.77;;;;;;;3.63;100.00;100425.96;1469691;88;21294;-75
2024/03/15 04:55:09;;;;;;;21.82;12.75;;;;;;;3.59;100.00;100424.83;1469190;88;22291;-75
2024/03/15 04:57:38;;;;;;;26.70;14.37;;;;;;;3.57;100.00;100424.12;1469393;88;21479;-75
2024/03/15 05:00:17;;;;;;;23.97;14.47;;;;;;;3.55;100.00;100428.61;1465587;88;22672;-75
2024/03/15 05:02:37;;;;;;;21.62;13.25;;;;;;;3.56;100.00;100432.89;1465419;88;22225;-78
2024/03/15 05:05:07;;;;;;;22.20;12.77;;;;;;;3.53;100.00;100429.17;1470872;88;21615;-76
2024/03/15 05:07:34;;;;;;;21.93;12.67;;;;;;;3.52;100.00;100431.42;1467145;88;22173;-76
2024/03/15 05:10:01;;;;;;;21.13;12.73;;;;;;;3.48;100.00;100426.05;1449550;88;22432;-76
2024/03/15 05:12:29;;;;;;;21.70;13.10;;;;;;;3.45;100.00;100435.38;1468233;88;23068;-77
2024/03/15 05:14:56;;;;;;;24.87;14.27;;;;;;;3.45;100.00;100433.23;1456850;88;22089;-77
2024/03/15 05:17:23;;;;;;;24.33;14.33;;;;;;;3.42;100.00;100444.73;1462472;88;23144;-76
2024/03/15 05:19:51;;;;;;;25.13;15.03;;;;;;;3.39;100.00;100443.19;1475749;88;22158;-77
2024/03/15 05:22:19;;;;;;;25.37;13.27;;;;;;;3.38;100.00;100451.13;1468326;88;23126;-77
2024/03/15 05:24:46;;;;;;;26.37;13.67;;;;;;;3.40;100.00;100447.95;1475925;88;22055;-76
2024/03/15 05:27:13;;;;;;;21.23;12.80;;;;;;;3.41;100.00;100454.84;1466573;88;22030;-76
2024/03/15 05:29:40;;;;;;;24.80;13.40;;;;;;;3.43;100.00;100455.59;1472216;88;22039;-78
2024/03/15 05:32:07;;;;;;;21.53;13.77;;;;;;;3.43;100.00;100446.44;1469541;88;23065;-77
2024/03/15 05:34:35;;;;;;;21.77;13.63;;;;;;;3.44;100.00;100448.58;1472420;88;22099;-76
2024/03/15 05:37:04;;;;;;;19.40;11.90;;;;;;;3.45;100.00;100448.46;1437773;88;22306;-76
2024/03/15 05:39:31;;;;;;;21.57;12.67;;;;;;;3.47;100.00;100446.59;1473591;88;22150;-79
2024/03/15 05:41:58;;;;;;;21.93;13.30;;;;;;;3.52;100.00;100452.36;1470730;88;22032;-78
2024/03/15 05:44:26;;;;;;;24.03;13.90;;;;;;;3.56;100.00;100455.13;1473829;88;23508;-78
2024/03/15 05:46:57;;;;;;;24.63;12.30;;;;;;;3.63;100.00;100457.37;1455715;88;22580;-78
2024/03/15 05:49:22;;;;;;;21.70;12.57;;;;;;;3.67;100.00;100449.66;1469336;88;22643;-77
2024/03/15 05:51:49;;;;;;;21.53;13.37;;;;;;;3.74;100.00;100458.77;1471076;88;23030;-77
2024/03/15 05:54:16;;;;;;;22.83;13.47;;;;;;;3.80;100.00;100465.77;1470419;88;22149;-78
2024/03/15 05:56:44;;;;;;;20.00;11.30;;;;;;;3.78;100.00;100462.88;1469592;88;22085;-78
2024/03/15 05:59:13;;;;;;;27.00;16.67;;;;;;;3.74;100.00;100461.39;1470266;88;22964;-78
2024/03/15 06:01:41;;;;;;;25.70;14.20;;;;;;;3.73;100.00;100468.88;1465064;88;22127;-78
2024/03/15 06:04:10;;;;;;;25.67;15.23;;;;;;;3.72;100.00;100463.30;1461961;88;22207;-77
2024/03/15 06:06:40;;;;;;;24.00;14.83;;;;;;;3.75;100.00;100463.08;1467879;88;23154;-77
2024/03/15 06:09:09;;;;;;;23.67;13.77;;;;;;;3.76;100.00;100466.06;1470154;88;22091;-78
2024/03/15 06:11:38;;;;;;;21.93;13.80;;;;;;;3.81;100.00;100470.52;1471580;88;22076;-77
2024/03/15 06:14:05;;;;;;;20.80;13.20;;;;;;;3.90;100.00;100469.06;1469489;88;22158;-76
2024/03/15 06:16:34;;;;;;;19.97;12.93;;;;;;;3.91;100.00;100468.94;1468646;88;22113;-77
2024/03/15 06:19:01;;;;;;;24.03;13.73;;;;;;;3.94;100.00;100462.22;1474176;88;22061;-77
2024/03/15 06:21:29;;;;;;;21.23;13.10;;;;;;;4.04;100.00;100461.94;1469958;88;22077;-78
2024/03/15 06:23:57;;;;;;;20.07;12.10;;;;;;;4.04;100.00;100461.94;1469036;88;21375;-76
2024/03/15 06:26:24;;;;;;;21.00;13.40;;;;;;;4.12;100.00;100465.35;1468294;88;22090;-75
2024/03/15 06:28:54;;;;;;;20.37;11.40;;;;;;;4.25;100.00;100461.41;1477069;88;22113;-77
2024/03/15 06:31:22;;;;;;;14.15;8.80;;;;;;;4.43;100.00;100455.34;1470158;88;21571;-77
2024/03/15 06:33:49;;;;;;;17.17;10.77;;;;;;;4.51;100.00;100455.66;1453712;88;21783;-76
2024/03/15 06:36:18;;;;;;;14.70;9.57;;;;;;;4.66;100.00;100453.28;1477317;88;21501;-77
2024/03/15 06:41:29;;;;;;;17.47;9.67;;;;;;;4.66;100.00;100460.28;1444601;90;21531;-76
2024/03/15 06:44:04;;;;;;;;;;;;;;;4.74;100.00;100465.82;1447288;90;21472;-75
2024/03/15 06:46:41;;;;;;;17.97;11.50;;;;;;;4.79;100.00;100470.27;1446923;90;20285;-76
2024/03/15 06:49:02;;;;;;;13.10;9.43;;;;;;;4.97;100.00;100462.38;1443400;90;21501;-75
2024/03/15 06:54:16;;;;;;;13.93;9.30;;;;;;;5.28;100.00;100469.34;1442908;90;21324;-76
2024/03/15 06:56:43;;;;;;;17.30;9.80;;;;;;;5.31;97.32;100471.74;1444226;90;21592;-75
2024/03/15 06:59:11;;;;;;;15.67;9.43;;;;;;;5.32;95.86;100470.81;1450159;90;22350;-75
2024/03/15 07:01:38;;;;;;;18.33;9.53;;;;;;;5.39;94.70;100472.50;1443906;89;21590;-75
2024/03/15 07:04:07;;;;;;;16.23;9.47;;;;;;;5.53;97.35;100476.73;1441323;90;21435;-76
2024/03/15 07:06:35;;;;;;;17.43;10.40;;;;;;;5.64;91.55;100471.52;1443896;90;21885;-76
2024/03/15 07:09:14;;;;;;;15.63;9.77;;;;;;;5.81;91.21;100468.92;1433124;90;22256;-76
2024/03/15 07:11:35;;;;;;;16.00;10.67;;;;;;;5.85;88.40;100476.46;1441422;90;22382;-76
2024/03/15 07:14:08;;;;;;;15.70;9.43;;;;;;;6.03;89.01;100477.36;1440783;90;21332;-77
2024/03/15 07:16:35;;;;;;;21.87;11.37;;;;;;;6.23;91.29;100471.41;1440506;90;21501;-77
2024/03/15 07:19:05;;;;;;;17.50;11.03;;;;;;;6.41;89.15;100477.02;1447694;89;21413;-77
2024/03/15 07:21:32;;;;;;;17.30;10.47;;;;;;;6.50;83.89;100488.61;1437687;90;21530;-76
2024/03/15 07:24:00;;;;;;;16.70;10.60;;;;;;;6.65;84.25;100477.39;1449799;90;22398;-77
2024/03/15 07:26:28;;;;;;;18.43;12.13;;;;;;;6.84;84.87;100478.07;1444553;90;21509;-77
2024/03/15 07:28:57;;;;;;;15.63;10.60;;;;;;;6.99;82.77;100476.38;1443238;89;21406;-76
2024/03/15 07:31:24;;;;;;;15.60;10.83;;;;;;;7.10;81.62;100475.49;1447996;90;21643;-76
2024/03/15 07:33:51;;;;;;;16.53;10.07;;;;;;;7.29;81.88;100476.65;1442722;89;21376;-77
2024/03/15 07:36:20;;;;;;;16.03;10.00;;;;;;;7.42;75.33;100475.98;1444704;90;22889;-76
2024/03/15 07:38:47;;;;;;;13.80;8.87;;;;;;;7.63;78.69;100474.22;1440913;90;22271;-77
2024/03/15 07:41:17;;;;;;;14.40;9.27;;;;;;;7.71;74.45;100478.87;1439827;90;21368;-77
2024/03/15 07:43:44;;;;;;;14.33;9.23;;;;;;;7.68;72.25;100470.73;1449183;90;21517;-77
2024/03/15 07:46:11;;;;;;;14.30;10.43;;;;;;;7.58;71.35;100476.40;1448059;90;21442;-76
2024/03/15 07:48:41;;;;;;;15.90;10.60;;;;;;;7.85;73.92;100479.00;1431579;90;21382;-77
2024/03/15 07:51:08;;;;;;;15.73;10.97;;;;;;;8.04;73.24;100475.17;1413745;90;21575;-77
2024/03/15 07:53:35;;;;;;;18.23;10.73;;;;;;;8.21;74.62;100487.42;1442246;90;21846;-78
2024/03/15 07:56:09;;;;;;;14.90;9.90;;;;;;;8.50;75.09;100483.63;1438400;90;21375;-75
2024/03/15 07:58:32;;;;;;;14.43;9.43;;;;;;;8.73;74.41;100481.63;1445209;90;21450;-75
2024/03/15 08:00:59;;;;;;;17.93;9.40;;;;;;;8.94;72.16;100481.53;1446692;90;21376;-76
2024/03/15 08:03:27;;;;;;;15.57;9.73;;;;;;;9.06;70.93;100491.48;1443881;90;22403;-76
2024/03/15 08:06:00;;;;;;;14.60;9.83;;;;;;;9.16;69.52;100480.47;1427284;90;21561;-76
2024/03/15 08:08:24;;;;;;;16.37;10.23;;;;;;;9.28;70.78;100474.08;1444328;90;21471;-76
2024/03/15 08:10:51;;;;;;;13.03;9.00;;;;;;;9.33;69.47;100475.83;1441668;90;21619;-76
2024/03/15 08:13:25;;;;;;;13.30;9.30;;;;;;;9.52;69.96;100478.11;1429864;90;21420;-76
2024/03/15 08:16:18;;;;;;;14.53;10.30;;;;;;;9.65;69.09;100481.31;1442614;90;21524;-76
2024/03/15 08:18:32;;;;;;;15.97;10.60;;;;;;;9.71;67.50;100478.11;1448135;90;22300;-76
2024/03/15 08:20:59;;;;;;;15.83;9.83;;;;;;;9.87;68.64;100477.05;1438767;90;21392;-77
2024/03/15 08:23:27;;;;;;;15.83;10.07;;;;;;;10.08;67.93;100485.28;1430047;90;21443;-76
2024/03/15 08:25:54;;;;;;;47.63;29.57;;;;;;;10.10;67.06;100483.34;1444775;90;21435;-76
2024/03/15 08:28:22;;;;;;;16.33;12.07;;;;;;;10.28;66.67;100486.09;1448922;90;21498;-77
2024/03/15 08:30:49;;;;;;;15.27;10.17;;;;;;;10.37;66.74;100483.91;1447201;90;21451;-77
2024/03/15 08:33:16;;;;;;;17.60;10.30;;;;;;;10.52;65.85;100485.58;1447677;89;22462;-77
2024/03/15 08:35:44;;;;;;;14.73;9.83;;;;;;;10.68;66.63;100475.21;1445100;90;22312;-77
2024/03/15 08:38:11;;;;;;;11.97;7.97;;;;;;;10.79;63.99;100479.48;1445074;89;21538;-77
2024/03/15 08:40:38;;;;;;;11.30;7.60;;;;;;;10.88;64.39;100473.29;1451142;89;21450;-76
2024/03/15 08:43:07;;;;;;;30.03;24.03;;;;;;;11.04;64.90;100472.62;1446332;90;21398;-76
2024/03/15 08:45:34;;;;;;;14.63;10.63;;;;;;;10.96;59.65;100471.20;1450813;90;21531;-77
2024/03/15 08:48:03;;;;;;;16.00;10.27;;;;;;;11.16;62.92;100471.41;1434809;90;21471;-76
2024/03/15 08:50:33;;;;;;;15.23;10.87;;;;;;;11.29;61.02;100470.56;1441593;89;21413;-77
2024/03/15 08:53:03;;;;;;;11.03;7.87;;;;;;;11.38;62.27;100473.30;1448708;89;21552;-76
2024/03/15 08:55:30;;;;;;;11.40;8.60;;;;;;;11.51;62.41;100472.43;1437790;90;21456;-77
2024/03/15 08:57:57;;;;;;;13.37;9.90;;;;;;;11.70;62.31;100472.73;1440987;90;21465;-76
2024/03/15 09:00:25;;;;;;;14.47;10.13;;;;;;;11.65;58.55;100470.56;1442576;89;21362;-76
2024/03/15 09:02:54;;;;;;;11.23;8.13;;;;;;;11.79;61.42;100464.34;1455478;89;22308;-77
2024/03/15 09:05:21;;;;;;;28.63;10.13;;;;;;;11.99;60.90;100468.50;1430954;90;21425;-77
2024/03/15 09:07:48;;;;;;;9.30;6.40;;;;;;;12.04;59.82;100464.89;1428578;90;21398;-76
2024/03/15 09:10:16;;;;;;;12.40;7.17;;;;;;;12.25;60.51;100472.97;1447103;90;21406;-77
2024/03/15 09:12:44;;;;;;;15.87;8.83;;;;;;;12.40;59.10;100469.59;1439745;89;21427;-77
2024/03/15 09:15:12;;;;;;;20.47;7.97;;;;;;;12.60;59.92;100467.98;1443932;90;21443;-77
2024/03/15 09:17:41;;;;;;;14.93;9.47;;;;;;;12.79;59.44;100465.59;1449143;90;21469;-76
2024/03/15 09:20:33;;;;;;;11.40;7.93;;;;;;;12.96;59.13;100461.16;1439240;90;22388;-76
2024/03/15 09:22:51;;;;;;;13.07;9.20;;;;;;;13.13;59.20;100462.85;1442009;90;21648;-76
2024/03/15 09:25:19;;;;;;;12.83;8.63;;;;;;;13.35;58.03;100453.46;1427753;90;21527;-77
2024/03/15 09:27:54;;;;;;;20.80;7.87;;;;;;;13.33;55.69;100453.28;1441910;90;21340;-77
2024/03/15 09:33:08;;;;;;;10.77;7.93;;;;;;;13.42;56.25;100453.12;1396005;90;21406;-77
2024/03/15 09:35:40;;;;;;;16.27;9.13;;;;;;;13.02;52.12;100461.33;1450275;89;21509;-77
2024/03/15 09:38:07;;;;;;;12.43;7.83;;;;;;;12.88;54.52;100459.30;1450495;90;21428;-77
2024/03/15 09:40:35;;;;;;;17.87;8.57;;;;;;;13.13;56.66;100454.88;1445454;90;21319;-77
2024/03/15 09:43:02;;;;;;;14.33;9.60;;;;;;;13.28;56.87;100453.27;1450871;89;21383;-77
2024/03/15 09:45:34;;;;;;;16.33;8.73;;;;;;;13.20;54.86;100455.05;1442832;90;21332;-77
2024/03/15 09:48:02;;;;;;;13.35;8.13;;;;;;;13.27;55.29;100453.45;1425239;90;22374;-77
2024/03/15 09:50:31;;;;;;;9.30;7.23;;;;;;;12.97;53.94;100453.01;1448367;90;21572;-77
2024/03/15 09:52:59;;;;;;;10.07;8.10;;;;;;;13.15;53.91;100452.05;1429247;90;21376;-77
2024/03/15 09:55:27;;;;;;;11.60;8.40;;;;;;;13.28;53.72;100449.78;1444384;90;22515;-77
2024/03/15 09:57:54;;;;;;;17.70;7.93;;;;;;;13.49;55.64;100448.81;1443421;89;21317;-77
2024/03/15 10:00:23;;;;;;;10.73;8.13;;;;;;;13.82;55.88;100447.45;1444601;90;21634;-77
2024/03/15 10:02:53;;;;;;;15.30;9.00;;;;;;;14.05;54.97;100453.41;1451703;89;22835;-77
2024/03/15 10:05:21;;;;;;;14.07;8.00;;;;;;;14.30;55.10;100448.36;1454079;90;21524;-77
2024/03/15 10:07:52;;;;;;;11.00;7.90;;;;;;;14.59;55.21;100440.30;1442071;89;22514;-74
2024/03/15 10:10:20;;;;;;;12.63;9.20;;;;;;;14.73;53.94;100443.56;1444717;89;21675;-76
2024/03/15 10:12:49;;;;;;;11.03;7.70;;;;;;;14.64;52.96;100441.44;1425052;90;21495;-76
2024/03/15 10:15:20;;;;;;;9.63;7.50;;;;;;;14.81;53.17;100435.50;1449586;90;21547;-76
2024/03/15 10:17:54;;;;;;;10.80;7.75;;;;;;;15.05;53.42;100443.05;1451056;90;21339;-76
2024/03/15 10:20:26;;;;;;;9.00;6.87;;;;;;;15.10;51.91;100441.52;1444474;89;21428;-77
2024/03/15 10:22:56;;;;;;;10.43;7.87;;;;;;;15.30;52.73;100435.18;1439056;90;22316;-76
2024/03/15 10:25:25;;;;;;;10.30;7.83;;;;;;;15.28;51.39;100432.39;1447436;90;21546;-76
2024/03/15 10:27:55;;;;;;;9.67;7.80;;;;;;;14.87;49.88;100437.97;1437678;89;21421;-76
2024/03/15 10:30:26;;;;;;;18.10;8.23;;;;;;;15.10;51.92;100436.66;1445122;90;21369;-76
2024/03/15 10:32:57;;;;;;;13.00;7.53;;;;;;;15.32;51.67;100427.84;1447494;90;22336;-76
2024/03/15 10:35:27;;;;;;;10.73;6.80;;;;;;;15.46;50.83;100428.91;1440747;89;21378;-77
2024/03/15 10:37:55;;;;;;;12.77;7.90;;;;;;;15.58;50.76;100429.30;1429739;90;21442;-76
2024/03/15 10:40:25;;;;;;;12.37;7.80;;;;;;;15.83;50.17;100423.27;1443049;89;22294;-76
2024/03/15 10:42:56;;;;;;;13.75;7.17;;;;;;;16.01;50.35;100423.74;1451756;89;22433;-76
2024/03/15 10:45:25;;;;;;;10.33;8.27;;;;;;;16.10;49.54;100428.48;1461475;90;21302;-77
2024/03/15 10:47:54;;;;;;;16.13;7.97;;;;;;;15.84;47.61;100422.25;1447906;89;21524;-76
2024/03/15 10:50:25;;;;;;;13.60;8.97;;;;;;;15.95;49.70;100424.98;1437610;90;21604;-76
2024/03/15 10:52:54;;;;;;;10.17;8.17;;;;;;;16.12;48.55;100420.31;1444775;90;21509;-80
2024/03/15 10:55:25;;;;;;;16.03;9.73;;;;;;;16.14;48.35;100418.27;1439875;90;21317;-79
2024/03/15 10:58:04;;;;;;;10.57;8.43;;;;;;;16.13;48.80;100416.10;1429594;90;21398;-81
2024/03/15 11:00:30;;;;;;;13.23;8.33;;;;;;;16.35;48.79;100416.20;1450783;90;21516;-79
2024/03/15 11:03:15;;;;;;;15.55;8.93;;;;;;;16.50;48.53;100406.84;1451104;90;21518;-79
2024/03/15 11:05:42;;;;;;;15.03;9.87;;;;;;;16.64;48.06;100406.80;1446686;89;21368;-79
2024/03/15 11:08:16;;;;;;;10.50;7.53;;;;;;;16.84;48.90;100400.38;1446998;90;21428;-79
2024/03/15 11:11:01;;;;;;;40.20;28.67;;;;;;;16.85;47.22;100399.86;1440403;89;21369;-79
2024/03/15 11:13:36;;;;;;;21.63;15.13;;;;;;;16.73;45.08;100404.02;1443324;89;21490;-79
2024/03/15 11:16:23;;;;;;;10.63;8.63;;;;;;;16.77;46.79;100403.98;1447590;90;21420;-79
2024/03/15 11:18:50;;;;;;;12.87;9.90;;;;;;;16.80;45.58;100403.61;1438256;90;21384;-79
2024/03/15 11:21:21;;;;;;;14.97;8.87;;;;;;;16.84;47.46;100406.23;1446385;90;22361;-79
2024/03/15 11:23:48;;;;;;;14.63;10.23;;;;;;;17.10;47.32;100395.81;1442830;90;21480;-79
2024/03/15 11:26:22;;;;;;;11.83;9.03;;;;;;;17.36;47.84;100395.73;1442999;90;21391;-79
2024/03/15 11:28:55;;;;;;;12.15;9.23;;;;;;;17.57;47.18;100399.71;1449562;90;21414;-78
2024/03/15 11:31:32;;;;;;;12.73;9.50;;;;;;;17.65;45.58;100393.91;1425771;90;22471;-79
2024/03/15 11:34:00;;;;;;;11.35;8.38;;;;;;;17.57;45.32;100389.01;1438026;90;22234;-79